createdAt,value
2022-07-30T00:00:02.299Z,50.866890
2022-07-30T00:01:02.329Z,50.866985
2022-07-30T00:02:02.293Z,50.866898
2022-07-30T00:03:02.275Z,50.866924
2022-07-30T00:04:02.938Z,50.866871
2022-07-30T00:05:02.296Z,50.866730
2022-07-30T00:06:02.254Z,50.866711
2022-07-30T00:07:02.912Z,50.866829
2022-07-30T00:08:02.236Z,50.866817
2022-07-30T00:09:02.229Z,50.866791
2022-07-30T00:10:02.220Z,50.866764
2022-07-30T00:11:02.209Z,50.866737
2022-07-30T00:12:02.214Z,50.866653
2022-07-30T00:13:02.197Z,50.866703
2022-07-30T00:14:02.207Z,50.866627
2022-07-30T00:15:02.183Z,50.866707
2022-07-30T00:16:02.171Z,50.866722
2022-07-30T00:17:02.559Z,50.867050
2022-07-30T00:18:02.169Z,50.866959
2022-07-30T00:19:02.146Z,50.867115
2022-07-30T00:20:02.937Z,50.866833
2022-07-30T00:21:02.136Z,50.866959
2022-07-30T00:22:02.125Z,50.867008
2022-07-30T00:23:02.126Z,50.867035
2022-07-30T00:24:02.479Z,50.866737
2022-07-30T00:25:02.112Z,50.866707
2022-07-30T00:26:02.087Z,50.866699
2022-07-30T00:27:02.527Z,50.866657
2022-07-30T00:28:02.082Z,50.866673
2022-07-30T00:29:02.063Z,50.866699
2022-07-30T00:30:02.061Z,50.866676
2022-07-30T00:31:02.114Z,50.866669
2022-07-30T00:36:03.143Z,50.866592
2022-07-30T00:37:03.592Z,50.866676
2022-07-30T00:38:03.133Z,50.866730
2022-07-30T00:39:03.119Z,50.866699
2022-07-30T00:40:03.106Z,50.866653
2022-07-30T00:41:03.097Z,50.866631
2022-07-30T00:42:03.093Z,50.866673
2022-07-30T00:43:03.081Z,50.866776
2022-07-30T00:44:03.078Z,50.866665
2022-07-30T00:45:03.067Z,50.866547
2022-07-30T00:46:03.122Z,50.866554
2022-07-30T00:47:03.617Z,50.866581
2022-07-30T00:48:03.037Z,50.866570
2022-07-30T00:49:03.079Z,50.866619
2022-07-30T00:50:04.019Z,50.866577
2022-07-30T00:51:03.020Z,50.866604
2022-07-30T00:52:03.023Z,50.866623
2022-07-30T00:53:03.009Z,50.866653
2022-07-30T00:54:03.513Z,50.866638
2022-07-30T00:55:02.997Z,50.866547
2022-07-30T00:56:03.032Z,50.866589
2022-07-30T00:57:03.383Z,50.866634
2022-07-30T00:58:02.966Z,50.866634
2022-07-30T00:59:02.978Z,50.866669
2022-07-30T01:00:02.948Z,50.866631
2022-07-30T01:01:02.994Z,50.866676
2022-07-30T01:02:02.957Z,50.866673
2022-07-30T01:03:02.921Z,50.866585
2022-07-30T01:04:02.915Z,50.866570
2022-07-30T01:05:02.903Z,50.866562
2022-07-30T01:06:02.906Z,50.866577
2022-07-30T01:07:03.222Z,50.866573
2022-07-30T01:08:02.879Z,50.866604
2022-07-30T01:09:02.877Z,50.866634
2022-07-30T01:10:02.873Z,50.866623
2022-07-30T01:11:02.864Z,50.866714
2022-07-30T01:12:02.850Z,50.866619
2022-07-30T01:13:02.847Z,50.866837
2022-07-30T01:14:02.837Z,50.866657
2022-07-30T01:15:02.832Z,50.866573
2022-07-30T01:16:02.860Z,50.866573
2022-07-30T01:17:03.188Z,50.866585
2022-07-30T01:18:02.804Z,50.866608
2022-07-30T01:19:02.792Z,50.866585
2022-07-30T01:20:02.783Z,50.866436
2022-07-30T01:21:02.771Z,50.866409
2022-07-30T01:22:02.767Z,50.866528
2022-07-30T01:23:02.773Z,50.866589
2022-07-30T01:24:02.753Z,50.866570
2022-07-30T01:25:02.746Z,50.866615
2022-07-30T01:26:02.739Z,50.866737
2022-07-30T01:27:03.095Z,50.866634
2022-07-30T01:28:02.772Z,50.866623
2022-07-30T01:29:02.715Z,50.866703
2022-07-30T01:30:02.712Z,50.866665
2022-07-30T01:31:02.701Z,50.866688
2022-07-30T01:32:02.750Z,50.866680
2022-07-30T01:33:02.683Z,50.866783
2022-07-30T01:34:02.672Z,50.866699
2022-07-30T01:35:02.667Z,50.866768
2022-07-30T01:36:02.660Z,50.866726
2022-07-30T01:37:02.999Z,50.866768
2022-07-30T01:38:02.643Z,50.866829
2022-07-30T01:39:02.635Z,50.866772
2022-07-30T01:40:02.627Z,50.866760
2022-07-30T01:41:02.622Z,50.866772
2022-07-30T01:42:02.610Z,50.866722
2022-07-30T01:43:02.671Z,50.866737
2022-07-30T01:44:02.600Z,50.866798
2022-07-30T01:45:03.528Z,50.866817
2022-07-30T01:46:02.627Z,50.866776
2022-07-30T01:47:03.087Z,50.866768
2022-07-30T01:48:02.559Z,50.866833
2022-07-30T01:49:02.605Z,50.866890
2022-07-30T01:50:02.542Z,50.866764
2022-07-30T01:51:02.541Z,50.866821
2022-07-30T01:52:02.524Z,50.866901
2022-07-30T01:53:02.515Z,50.866875
2022-07-30T01:54:02.513Z,50.866913
2022-07-30T01:55:02.505Z,50.866928
2022-07-30T01:56:02.502Z,50.866817
2022-07-30T01:57:02.984Z,50.866783
2022-07-30T01:58:02.477Z,50.866787
2022-07-30T01:59:02.477Z,50.866859
2022-07-30T02:00:02.470Z,50.866817
2022-07-30T02:01:02.502Z,50.866814
2022-07-30T02:02:02.455Z,50.866791
2022-07-30T02:03:02.441Z,50.866814
2022-07-30T02:04:02.517Z,50.866798
2022-07-30T02:05:02.468Z,50.866787
2022-07-30T02:06:02.425Z,50.866772
2022-07-30T02:07:02.789Z,50.866760
2022-07-30T02:08:02.408Z,50.866768
2022-07-30T02:09:02.397Z,50.866787
2022-07-30T02:10:03.418Z,50.866791
2022-07-30T02:11:02.378Z,50.866764
2022-07-30T02:12:02.375Z,50.866787
2022-07-30T02:13:02.358Z,50.866791
2022-07-30T02:14:02.356Z,50.866768
2022-07-30T02:15:02.340Z,50.866798
2022-07-30T02:16:02.390Z,50.866783
2022-07-30T02:17:02.877Z,50.866760
2022-07-30T02:18:02.327Z,50.866741
2022-07-30T02:19:02.315Z,50.866669
2022-07-30T02:20:04.759Z,50.866653
2022-07-30T02:21:07.544Z,50.866600
2022-07-30T02:22:03.287Z,50.866615
2022-07-30T02:23:02.286Z,50.866688
2022-07-30T02:24:03.273Z,50.866768
2022-07-30T02:25:02.268Z,50.866810
2022-07-30T02:26:02.252Z,50.866928
2022-07-30T02:27:02.627Z,50.866970
2022-07-30T02:28:02.246Z,50.866982
2022-07-30T02:29:02.234Z,50.866768
2022-07-30T02:30:02.220Z,50.866760
2022-07-30T02:31:02.289Z,50.866776
2022-07-30T02:32:03.971Z,50.866695
2022-07-30T02:33:02.202Z,50.866764
2022-07-30T02:34:02.195Z,50.866741
2022-07-30T02:35:02.182Z,50.866737
2022-07-30T02:36:02.173Z,50.866699
2022-07-30T02:37:02.731Z,50.866730
2022-07-30T02:38:02.162Z,50.866688
2022-07-30T02:39:02.152Z,50.866776
2022-07-30T02:40:02.140Z,50.866859
2022-07-30T02:41:02.153Z,50.866741
2022-07-30T02:42:02.111Z,50.866695
2022-07-30T02:43:03.120Z,50.866745
2022-07-30T02:44:02.115Z,50.866734
2022-07-30T02:45:02.099Z,50.866726
2022-07-30T02:46:02.090Z,50.866726
2022-07-30T02:47:04.686Z,50.866795
2022-07-30T02:48:02.075Z,50.866772
2022-07-30T02:49:02.104Z,50.866741
2022-07-30T02:50:02.972Z,50.866714
2022-07-30T02:51:02.051Z,50.866684
2022-07-30T02:52:02.064Z,50.866722
2022-07-30T02:53:02.041Z,50.866768
2022-07-30T02:54:02.029Z,50.866783
2022-07-30T02:55:02.014Z,50.866779
2022-07-30T02:56:02.012Z,50.866776
2022-07-30T02:57:02.348Z,50.867012
2022-07-30T02:58:01.991Z,50.866867
2022-07-30T02:59:01.982Z,50.866779
2022-07-30T03:00:01.975Z,50.866802
2022-07-30T03:01:03.241Z,50.866764
2022-07-30T03:02:01.997Z,50.866749
2022-07-30T03:03:02.012Z,50.866711
2022-07-30T03:04:01.943Z,50.866741
2022-07-30T03:05:01.933Z,50.866756
2022-07-30T03:06:01.928Z,50.866829
2022-07-30T03:07:07.918Z,50.866821
2022-07-30T03:08:03.909Z,50.866756
2022-07-30T03:09:01.898Z,50.866814
2022-07-30T03:10:01.888Z,50.866806
2022-07-30T03:11:01.904Z,50.866856
2022-07-30T03:12:01.873Z,50.866768
2022-07-30T03:13:01.870Z,50.866806
2022-07-30T03:14:01.856Z,50.866814
2022-07-30T03:15:01.850Z,50.866772
2022-07-30T03:16:01.899Z,50.866787
2022-07-30T03:17:02.318Z,50.866955
2022-07-30T03:18:01.824Z,50.866901
2022-07-30T03:19:01.830Z,50.866787
2022-07-30T03:20:01.809Z,50.866737
2022-07-30T03:21:01.801Z,50.866966
2022-07-30T03:22:01.796Z,50.867027
2022-07-30T03:23:01.786Z,50.867046
2022-07-30T03:24:01.774Z,50.866821
2022-07-30T03:25:01.766Z,50.866741
2022-07-30T03:26:01.759Z,50.866753
2022-07-30T03:27:02.232Z,50.866753
2022-07-30T03:28:01.749Z,50.866791
2022-07-30T03:29:01.737Z,50.866833
2022-07-30T03:30:02.598Z,50.866959
2022-07-30T03:31:01.795Z,50.866905
2022-07-30T03:32:01.726Z,50.866875
2022-07-30T03:33:01.712Z,50.866875
2022-07-30T03:34:01.699Z,50.866825
2022-07-30T03:35:06.165Z,50.866817
2022-07-30T03:36:03.679Z,50.866989
2022-07-30T03:37:01.989Z,50.867168
2022-07-30T03:38:01.718Z,50.866982
2022-07-30T03:39:01.655Z,50.866795
2022-07-30T03:40:02.565Z,50.866917
2022-07-30T03:41:01.645Z,50.866791
2022-07-30T03:42:01.660Z,50.866837
2022-07-30T03:43:01.630Z,50.866776
2022-07-30T03:44:01.620Z,50.866734
2022-07-30T03:45:01.611Z,50.866776
2022-07-30T03:46:01.824Z,50.866714
2022-07-30T03:47:01.832Z,50.866714
2022-07-30T03:48:01.594Z,50.866787
2022-07-30T03:49:01.641Z,50.866798
2022-07-30T03:50:01.581Z,50.866821
2022-07-30T03:51:01.561Z,50.866768
2022-07-30T03:52:01.555Z,50.866783
2022-07-30T03:53:01.545Z,50.866741
2022-07-30T03:54:01.547Z,50.866810
2022-07-30T03:55:01.531Z,50.866837
2022-07-30T03:56:01.523Z,50.866810
2022-07-30T03:57:01.991Z,50.866825
2022-07-30T03:58:01.502Z,50.866817
2022-07-30T03:59:01.501Z,50.866653
2022-07-30T04:00:01.488Z,50.866730
2022-07-30T04:01:01.485Z,50.866734
2022-07-30T04:02:06.787Z,50.866718
2022-07-30T04:03:02.466Z,50.866756
2022-07-30T04:04:01.529Z,50.866734
2022-07-30T04:05:01.455Z,50.866753
2022-07-30T04:06:01.438Z,50.866783
2022-07-30T04:07:01.912Z,50.866783
2022-07-30T04:08:01.424Z,50.866776
2022-07-30T04:09:01.413Z,50.866795
2022-07-30T04:10:01.413Z,50.866802
2022-07-30T04:11:01.405Z,50.866795
2022-07-30T04:12:01.393Z,50.866791
2022-07-30T04:13:01.389Z,50.866753
2022-07-30T04:14:01.378Z,50.866703
2022-07-30T04:15:01.366Z,50.866718
2022-07-30T04:16:37.388Z,50.866737
2022-07-30T04:17:02.904Z,50.866726
2022-07-30T04:18:01.347Z,50.866749
2022-07-30T04:19:01.338Z,50.866714
2022-07-30T04:20:01.330Z,50.866726
2022-07-30T04:21:01.327Z,50.866741
2022-07-30T04:22:01.311Z,50.866737
2022-07-30T04:23:01.308Z,50.866756
2022-07-30T04:24:04.336Z,50.866753
2022-07-30T04:25:01.342Z,50.866756
2022-07-30T04:26:01.286Z,50.866783
2022-07-30T04:27:01.711Z,50.866783
2022-07-30T04:28:03.524Z,50.866722
2022-07-30T04:29:01.260Z,50.866714
2022-07-30T04:30:01.264Z,50.866718
2022-07-30T04:31:01.297Z,50.866699
2022-07-30T04:32:01.233Z,50.866684
2022-07-30T04:33:01.258Z,50.866695
2022-07-30T04:34:04.454Z,50.866692
2022-07-30T04:35:01.212Z,50.866726
2022-07-30T04:36:01.218Z,50.866741
2022-07-30T04:37:01.463Z,50.866737
2022-07-30T04:38:01.186Z,50.866734
2022-07-30T04:39:01.180Z,50.866726
2022-07-30T04:40:01.171Z,50.866756
2022-07-30T04:41:01.163Z,50.866737
2022-07-30T04:42:01.165Z,50.866726
2022-07-30T04:43:01.162Z,50.866756
2022-07-30T04:44:01.141Z,50.866753
2022-07-30T04:45:01.131Z,50.866741
2022-07-30T04:46:01.138Z,50.866726
2022-07-30T04:47:01.481Z,50.866745
2022-07-30T04:48:01.113Z,50.866776
2022-07-30T04:49:01.140Z,50.866772
2022-07-30T04:50:01.092Z,50.866768
2022-07-30T04:51:01.110Z,50.866756
2022-07-30T04:52:01.083Z,50.866753
2022-07-30T04:53:01.068Z,50.866741
2022-07-30T04:54:01.065Z,50.866753
2022-07-30T04:55:01.053Z,50.866730
2022-07-30T04:56:01.060Z,50.866764
2022-07-30T04:57:01.059Z,50.866795
2022-07-30T04:58:02.125Z,50.866722
2022-07-30T04:59:01.019Z,50.866703
2022-07-30T05:00:01.014Z,50.866760
2022-07-30T05:01:01.020Z,50.866787
2022-07-30T05:02:01.049Z,50.866768
2022-07-30T05:03:00.987Z,50.866734
2022-07-30T05:04:00.979Z,50.866768
2022-07-30T05:05:01.022Z,50.866783
2022-07-30T05:06:00.975Z,50.866714
2022-07-30T05:07:01.090Z,50.866756
2022-07-30T05:08:00.947Z,50.866783
2022-07-30T05:09:00.952Z,50.866734
2022-07-30T05:10:00.936Z,50.866711
2022-07-30T05:11:00.935Z,50.866722
2022-07-30T05:12:01.046Z,50.866749
2022-07-30T05:13:00.914Z,50.866692
2022-07-30T05:14:00.906Z,50.866798
2022-07-30T05:15:00.908Z,50.866730
2022-07-30T05:16:00.935Z,50.866768
2022-07-30T05:17:01.094Z,50.866665
2022-07-30T05:18:00.872Z,50.866749
2022-07-30T05:19:00.857Z,50.866760
2022-07-30T05:20:02.041Z,50.866783
2022-07-30T05:21:00.849Z,50.866730
2022-07-30T05:22:06.127Z,50.866852
2022-07-30T05:23:02.837Z,50.866806
2022-07-30T05:24:00.830Z,50.866756
2022-07-30T05:25:00.815Z,50.866722
2022-07-30T05:26:00.813Z,50.866791
2022-07-30T05:27:01.075Z,50.866833
2022-07-30T05:28:00.800Z,50.866798
2022-07-30T05:29:00.788Z,50.866619
2022-07-30T05:30:00.779Z,50.866455
2022-07-30T05:31:00.815Z,50.866570
2022-07-30T05:32:03.495Z,50.866577
2022-07-30T05:33:01.349Z,50.866646
2022-07-30T05:34:03.381Z,50.866695
2022-07-30T05:35:01.739Z,50.866703
2022-07-30T05:36:00.727Z,50.866577
2022-07-30T05:37:00.925Z,50.866474
2022-07-30T05:38:00.707Z,50.866669
2022-07-30T05:39:00.708Z,50.867016
2022-07-30T05:40:03.342Z,50.867035
2022-07-30T05:41:00.685Z,50.866940
2022-07-30T05:42:00.677Z,50.866898
2022-07-30T05:43:00.687Z,50.867004
2022-07-30T05:44:00.693Z,50.866936
2022-07-30T05:45:00.653Z,50.866894
2022-07-30T05:46:00.717Z,50.866829
2022-07-30T05:47:00.888Z,50.866920
2022-07-30T05:48:00.634Z,50.866657
2022-07-30T05:49:00.671Z,50.866779
2022-07-30T05:50:04.841Z,50.866924
2022-07-30T05:51:01.607Z,50.866814
2022-07-30T05:52:00.600Z,50.866959
2022-07-30T05:53:00.584Z,50.866901
2022-07-30T05:54:00.580Z,50.866894
2022-07-30T05:55:00.568Z,50.866863
2022-07-30T05:56:00.618Z,50.866837
2022-07-30T05:57:00.825Z,50.866779
2022-07-30T05:58:00.556Z,50.866768
2022-07-30T05:59:00.540Z,50.866772
2022-07-30T06:00:00.531Z,50.866768
2022-07-30T06:01:00.530Z,50.866844
2022-07-30T06:02:00.590Z,50.866840
2022-07-30T06:03:00.509Z,50.866768
2022-07-30T06:04:00.535Z,50.866825
2022-07-30T06:05:00.590Z,50.866985
2022-07-30T06:06:00.490Z,50.867054
2022-07-30T06:07:00.835Z,50.867168
2022-07-30T06:08:00.474Z,50.867153
2022-07-30T06:09:00.475Z,50.866943
2022-07-30T06:10:00.503Z,50.866856
2022-07-30T06:11:00.443Z,50.866951
2022-07-30T06:12:00.436Z,50.867058
2022-07-30T06:13:00.433Z,50.867401
2022-07-30T06:14:00.420Z,50.867195
2022-07-30T06:15:00.410Z,50.867435
2022-07-30T06:16:00.459Z,50.866993
2022-07-30T06:17:00.754Z,50.867134
2022-07-30T06:18:02.275Z,50.867153
2022-07-30T06:19:00.386Z,50.867096
2022-07-30T06:20:00.374Z,50.867004
2022-07-30T06:21:00.367Z,50.866837
2022-07-30T06:22:05.708Z,50.866917
2022-07-30T06:23:01.349Z,50.866932
2022-07-30T06:24:00.344Z,50.866814
2022-07-30T06:25:00.334Z,50.866749
2022-07-30T06:26:00.325Z,50.866646
2022-07-30T06:27:00.662Z,50.866585
2022-07-30T06:28:15.408Z,50.866730
2022-07-30T06:29:02.302Z,50.866634
2022-07-30T06:30:00.302Z,50.866436
2022-07-30T06:31:00.383Z,50.866722
2022-07-30T06:32:00.277Z,50.866875
2022-07-30T06:33:00.279Z,50.866768
2022-07-30T06:34:00.257Z,50.866844
2022-07-30T06:35:04.518Z,50.866875
2022-07-30T06:36:01.245Z,50.866886
2022-07-30T06:37:00.489Z,50.866726
2022-07-30T06:38:07.233Z,50.866859
2022-07-30T06:39:01.226Z,50.866798
2022-07-30T06:40:00.210Z,50.866768
2022-07-30T06:41:02.576Z,50.866776
2022-07-30T06:42:01.197Z,50.866634
2022-07-30T06:43:00.204Z,50.866726
2022-07-30T06:44:00.188Z,50.866776
2022-07-30T06:45:00.169Z,50.866890
2022-07-30T06:46:00.278Z,50.866871
2022-07-30T06:47:05.280Z,50.866882
2022-07-30T06:48:02.141Z,50.867016
2022-07-30T06:49:00.207Z,50.866745
2022-07-30T06:50:00.159Z,50.866665
2022-07-30T06:51:00.139Z,50.866653
2022-07-30T06:52:00.133Z,50.866653
2022-07-30T06:53:00.106Z,50.866653
2022-07-30T06:54:00.110Z,50.866684
2022-07-30T06:55:00.095Z,50.866688
2022-07-30T06:56:00.612Z,50.866684
2022-07-30T06:57:00.492Z,50.866718
2022-07-30T06:58:00.069Z,50.866741
2022-07-30T06:59:00.070Z,50.866745
2022-07-30T07:00:00.062Z,50.866764
2022-07-30T07:01:00.177Z,50.866749
2022-07-30T07:02:00.032Z,50.866714
2022-07-30T07:03:00.027Z,50.866730
2022-07-30T07:04:00.051Z,50.866737
2022-07-30T07:05:00.020Z,50.866730
2022-07-30T07:06:00.001Z,50.866753
2022-07-30T07:07:00.194Z,50.866753
2022-07-30T07:08:00.993Z,50.866749
2022-07-30T07:08:59.971Z,50.866821
2022-07-30T07:09:59.975Z,50.866718
2022-07-30T07:10:59.960Z,50.866734
2022-07-30T07:11:59.948Z,50.866676
2022-07-30T07:12:59.980Z,50.866676
2022-07-30T07:14:04.360Z,50.866653
2022-07-30T07:15:00.926Z,50.866714
2022-07-30T07:15:59.924Z,50.866745
2022-07-30T07:17:00.038Z,50.866734
2022-07-30T07:17:59.904Z,50.866825
2022-07-30T07:18:59.902Z,50.866825
2022-07-30T07:20:02.289Z,50.866817
2022-07-30T07:20:59.883Z,50.866726
2022-07-30T07:21:59.868Z,50.866749
2022-07-30T07:22:59.854Z,50.866737
2022-07-30T07:24:00.863Z,50.866734
2022-07-30T07:24:59.845Z,50.866825
2022-07-30T07:25:59.844Z,50.866791
2022-07-30T07:26:59.993Z,50.866806
2022-07-30T07:28:11.044Z,50.866856
2022-07-30T07:29:05.003Z,50.866837
2022-07-30T07:30:04.919Z,50.866886
2022-07-30T07:31:00.841Z,50.866817
2022-07-30T07:32:05.759Z,50.866821
2022-07-30T07:33:00.777Z,50.866802
2022-07-30T07:33:59.778Z,50.866791
2022-07-30T07:34:59.771Z,50.866791
2022-07-30T07:35:59.752Z,50.866779
2022-07-30T07:36:59.997Z,50.866802
2022-07-30T07:37:59.752Z,50.866787
2022-07-30T07:38:59.736Z,50.866768
2022-07-30T07:39:59.771Z,50.866756
2022-07-30T07:40:59.715Z,50.866802
2022-07-30T07:41:59.707Z,50.866844
2022-07-30T07:42:59.701Z,50.866798
2022-07-30T07:43:59.698Z,50.866802
2022-07-30T07:44:59.696Z,50.866798
2022-07-30T07:45:59.721Z,50.866791
2022-07-30T07:47:00.111Z,50.866814
2022-07-30T07:47:59.666Z,50.866825
2022-07-30T07:48:59.720Z,50.866825
2022-07-30T07:50:00.178Z,50.866817
2022-07-30T07:51:00.529Z,50.866779
2022-07-30T07:52:00.626Z,50.866817
2022-07-30T07:52:59.621Z,50.866760
2022-07-30T07:54:19.034Z,50.866753
2022-07-30T07:55:02.183Z,50.866776
2022-07-30T07:55:59.631Z,50.866749
2022-07-30T07:57:01.474Z,50.866756
2022-07-30T07:57:59.603Z,50.866772
2022-07-30T07:58:59.589Z,50.866787
2022-07-30T07:59:59.550Z,50.866772
2022-07-30T08:00:59.575Z,50.866821
2022-07-30T08:01:59.577Z,50.866714
2022-07-30T08:02:59.532Z,50.866718
2022-07-30T08:03:59.532Z,50.866673
2022-07-30T08:04:59.546Z,50.866657
2022-07-30T08:06:06.157Z,50.866642
2022-07-30T08:07:00.726Z,50.866631
2022-07-30T08:07:59.477Z,50.866680
2022-07-30T08:09:00.485Z,50.866695
2022-07-30T08:09:59.480Z,50.866737
2022-07-30T08:11:00.088Z,50.866745
2022-07-30T08:12:00.100Z,50.866760
2022-07-30T08:12:59.447Z,50.866745
2022-07-30T08:13:59.440Z,50.866726
2022-07-30T08:14:59.439Z,50.866779
2022-07-30T08:15:59.458Z,50.866795
2022-07-30T08:16:59.499Z,50.866833
2022-07-30T08:17:59.414Z,50.866760
2022-07-30T08:18:59.407Z,50.866779
2022-07-30T08:19:59.403Z,50.866898
2022-07-30T08:20:59.393Z,50.866940
2022-07-30T08:21:59.381Z,50.866955
2022-07-30T08:22:59.370Z,50.866997
2022-07-30T08:23:59.370Z,50.867016
2022-07-30T08:24:59.371Z,50.866924
2022-07-30T08:25:59.349Z,50.867020
2022-07-30T08:27:00.532Z,50.866943
2022-07-30T08:27:59.338Z,50.866829
2022-07-30T08:28:59.337Z,50.866833
2022-07-30T08:29:59.328Z,50.866875
2022-07-30T08:31:02.184Z,50.866882
2022-07-30T08:31:59.646Z,50.866875
2022-07-30T08:32:59.297Z,50.866898
2022-07-30T08:33:59.292Z,50.866898
2022-07-30T08:34:59.275Z,50.866909
2022-07-30T08:36:09.188Z,50.866913
2022-07-30T08:37:01.265Z,50.866894
2022-07-30T08:37:59.258Z,50.866871
2022-07-30T08:38:59.251Z,50.866856
2022-07-30T08:39:59.238Z,50.866867
2022-07-30T08:40:59.239Z,50.866875
2022-07-30T08:41:59.491Z,50.866859
2022-07-30T08:42:59.223Z,50.866802
2022-07-30T08:43:59.201Z,50.866825
2022-07-30T08:44:59.203Z,50.866875
2022-07-30T08:45:59.190Z,50.866867
2022-07-30T08:46:59.695Z,50.866894
2022-07-30T08:47:59.170Z,50.866909
2022-07-30T08:49:00.593Z,50.866905
2022-07-30T08:50:00.193Z,50.866943
2022-07-30T08:50:59.146Z,50.866962
2022-07-30T08:51:59.310Z,50.867039
2022-07-30T08:52:59.153Z,50.866959
2022-07-30T08:53:59.133Z,50.866943
2022-07-30T08:54:59.113Z,50.867031
2022-07-30T08:55:59.116Z,50.867004
2022-07-30T08:56:59.099Z,50.866989
2022-07-30T08:57:59.103Z,50.867023
2022-07-30T08:58:59.089Z,50.867031
2022-07-30T09:00:01.257Z,50.866955
2022-07-30T09:00:59.074Z,50.866920
2022-07-30T09:01:59.443Z,50.866909
2022-07-30T09:02:59.092Z,50.866890
2022-07-30T09:03:59.072Z,50.866962
2022-07-30T09:04:59.048Z,50.867023
2022-07-30T09:05:59.024Z,50.867096
2022-07-30T09:06:59.360Z,50.867115
2022-07-30T09:07:59.012Z,50.866966
2022-07-30T09:08:59.011Z,50.867054
2022-07-30T09:09:58.998Z,50.866978
2022-07-30T09:10:59.027Z,50.866920
2022-07-30T09:11:58.981Z,50.866909
2022-07-30T09:12:59.009Z,50.866962
2022-07-30T09:13:58.977Z,50.866894
2022-07-30T09:14:58.955Z,50.866909
2022-07-30T09:15:58.954Z,50.866932
2022-07-30T09:16:59.173Z,50.866898
2022-07-30T09:17:58.932Z,50.866875
2022-07-30T09:18:58.937Z,50.866882
2022-07-30T09:19:58.916Z,50.866871
2022-07-30T09:20:58.907Z,50.866863
2022-07-30T09:21:58.898Z,50.866844
2022-07-30T09:22:58.895Z,50.866848
2022-07-30T09:23:58.894Z,50.866848
2022-07-30T09:24:58.872Z,50.866871
2022-07-30T09:25:58.869Z,50.866852
2022-07-30T09:26:58.985Z,50.866898
2022-07-30T09:27:58.854Z,50.866867
2022-07-30T09:28:58.842Z,50.866898
2022-07-30T09:29:58.837Z,50.866955
2022-07-30T09:30:58.824Z,50.867073
2022-07-30T09:31:59.282Z,50.867119
2022-07-30T09:32:58.809Z,50.867100
2022-07-30T09:33:58.814Z,50.867031
2022-07-30T09:34:58.798Z,50.867054
2022-07-30T09:35:58.795Z,50.867115
2022-07-30T09:36:58.780Z,50.867157
2022-07-30T09:38:02.950Z,50.867104
2022-07-30T09:38:59.759Z,50.867176
2022-07-30T09:39:59.186Z,50.867073
2022-07-30T09:41:00.127Z,50.866768
2022-07-30T09:42:00.186Z,50.866611
2022-07-30T09:42:58.733Z,50.866745
2022-07-30T09:43:58.720Z,50.866825
2022-07-30T09:44:59.688Z,50.866844
2022-07-30T09:45:58.705Z,50.866650
2022-07-30T09:46:58.701Z,50.866516
2022-07-30T09:47:58.698Z,50.866394
2022-07-30T09:48:58.725Z,50.866451
2022-07-30T09:50:01.723Z,50.866463
2022-07-30T09:50:59.669Z,50.866478
2022-07-30T09:51:58.658Z,50.866436
2022-07-30T09:52:58.652Z,50.866428
2022-07-30T09:53:58.644Z,50.866455
2022-07-30T09:54:58.641Z,50.866402
2022-07-30T09:55:58.635Z,50.866493
2022-07-30T09:56:58.621Z,50.866486
2022-07-30T09:57:58.698Z,50.866573
2022-07-30T09:58:58.603Z,50.866604
2022-07-30T09:59:59.843Z,50.866547
2022-07-30T10:00:58.597Z,50.866718
2022-07-30T10:02:00.922Z,50.866718
2022-07-30T10:02:58.570Z,50.866726
2022-07-30T10:03:58.549Z,50.866718
2022-07-30T10:04:59.556Z,50.866707
2022-07-30T10:05:58.550Z,50.866707
2022-07-30T10:06:58.560Z,50.866718
2022-07-30T10:07:58.528Z,50.866726
2022-07-30T10:08:58.521Z,50.866695
2022-07-30T10:09:58.512Z,50.866665
2022-07-30T10:10:58.504Z,50.866692
2022-07-30T10:11:59.868Z,50.866730
2022-07-30T10:17:06.330Z,50.866741
2022-07-30T10:18:06.680Z,50.866676
2022-07-30T10:19:07.143Z,50.866611
2022-07-30T10:20:08.270Z,50.866634
2022-07-30T10:21:06.289Z,50.866833
2022-07-30T10:22:06.284Z,50.866817
2022-07-30T10:23:08.798Z,50.866821
2022-07-30T10:24:06.763Z,50.866879
2022-07-30T10:25:07.254Z,50.866879
2022-07-30T10:26:06.247Z,50.866867
2022-07-30T10:27:06.582Z,50.866856
2022-07-30T10:28:06.242Z,50.866829
2022-07-30T10:29:06.232Z,50.866680
2022-07-30T10:30:06.299Z,50.866684
2022-07-30T10:31:08.273Z,50.866707
2022-07-30T10:32:06.219Z,50.866711
2022-07-30T10:33:06.206Z,50.866650
2022-07-30T10:34:06.182Z,50.866673
2022-07-30T10:35:06.177Z,50.866631
2022-07-30T10:36:06.172Z,50.866604
2022-07-30T10:37:06.561Z,50.866638
2022-07-30T10:38:06.162Z,50.866650
2022-07-30T10:39:06.152Z,50.866631
2022-07-30T10:40:06.150Z,50.866695
2022-07-30T10:41:06.140Z,50.866680
2022-07-30T10:42:06.124Z,50.866703
2022-07-30T10:43:06.121Z,50.866673
2022-07-30T10:44:06.116Z,50.866680
2022-07-30T10:45:06.724Z,50.866676
2022-07-30T10:46:07.450Z,50.866699
2022-07-30T10:47:07.346Z,50.866711
2022-07-30T10:48:06.083Z,50.866734
2022-07-30T10:49:06.097Z,50.866703
2022-07-30T10:50:07.070Z,50.866699
2022-07-30T10:51:06.092Z,50.866695
2022-07-30T10:52:06.051Z,50.866699
2022-07-30T10:53:06.041Z,50.866692
2022-07-30T10:54:06.042Z,50.866684
2022-07-30T10:55:07.026Z,50.866673
2022-07-30T10:56:06.019Z,50.866680
2022-07-30T10:57:06.009Z,50.866676
2022-07-30T10:58:06.118Z,50.866707
2022-07-30T10:59:07.706Z,50.866688
2022-07-30T11:00:05.990Z,50.866695
2022-07-30T11:01:05.979Z,50.866692
2022-07-30T11:02:07.533Z,50.866673
2022-07-30T11:03:14.074Z,50.866699
2022-07-30T11:04:06.970Z,50.866711
2022-07-30T11:05:06.644Z,50.866703
2022-07-30T11:06:05.942Z,50.866692
2022-07-30T11:07:05.935Z,50.866684
2022-07-30T11:08:05.929Z,50.866673
2022-07-30T11:09:05.930Z,50.866699
2022-07-30T11:10:09.654Z,50.866695
2022-07-30T11:11:19.315Z,50.866718
2022-07-30T11:12:06.903Z,50.866749
2022-07-30T11:13:05.899Z,50.866745
2022-07-30T11:14:05.882Z,50.866749
2022-07-30T11:15:06.620Z,50.866829
2022-07-30T11:16:07.505Z,50.866886
2022-07-30T11:17:05.929Z,50.866932
2022-07-30T11:18:12.143Z,50.866756
2022-07-30T11:20:11.818Z,50.866722
2022-07-30T11:21:06.070Z,50.866692
2022-07-30T11:22:06.663Z,50.866516
2022-07-30T11:23:05.819Z,50.866261
2022-07-30T11:24:05.816Z,50.866310
2022-07-30T11:25:13.020Z,50.865971
2022-07-30T11:26:07.795Z,50.865635
2022-07-30T11:27:06.786Z,50.865879
2022-07-30T11:28:05.783Z,50.866058
2022-07-30T11:29:05.773Z,50.866146
2022-07-30T11:30:05.782Z,50.866177
2022-07-30T11:31:10.346Z,50.866344
2022-07-30T11:32:07.003Z,50.866325
2022-07-30T11:33:06.746Z,50.866211